sensor_id;sensor_type;location;lat;lon;timestamp;P1;durP1;ratioP1;P2;durP2;ratioP2
68300;SDS011;55146;47.468;18.806;2023-07-30T00:01:11;5.97;;;3.37;;
68300;SDS011;55146;47.468;18.806;2023-07-30T00:03:36;5.40;;;2.75;;
68300;SDS011;55146;47.468;18.806;2023-07-30T00:06:02;9.17;;;4.17;;
68300;SDS011;55146;47.468;18.806;2023-07-30T00:08:27;8.07;;;3.03;;
68300;SDS011;55146;47.468;18.806;2023-07-30T00:10:52;6.47;;;3.77;;
68300;SDS011;55146;47.468;18.806;2023-07-30T00:13:18;7.43;;;2.83;;
68300;SDS011;55146;47.468;18.806;2023-07-30T00:15:45;8.27;;;3.97;;
68300;SDS011;55146;47.468;18.806;2023-07-30T00:18:11;5.93;;;3.60;;
68300;SDS011;55146;47.468;18.806;2023-07-30T00:20:37;6.33;;;3.60;;
68300;SDS011;55146;47.468;18.806;2023-07-30T00:23:02;5.75;;;3.70;;
68300;SDS011;55146;47.468;18.806;2023-07-30T00:25:28;7.97;;;4.03;;
68300;SDS011;55146;47.468;18.806;2023-07-30T00:27:53;6.30;;;3.37;;
68300;SDS011;55146;47.468;18.806;2023-07-30T00:30:19;6.00;;;3.07;;
68300;SDS011;55146;47.468;18.806;2023-07-30T00:32:44;10.47;;;3.80;;
68300;SDS011;55146;47.468;18.806;2023-07-30T00:35:10;7.00;;;3.55;;
68300;SDS011;55146;47.468;18.806;2023-07-30T00:37:35;6.60;;;3.50;;
68300;SDS011;55146;47.468;18.806;2023-07-30T00:40:01;6.75;;;2.72;;
68300;SDS011;55146;47.468;18.806;2023-07-30T00:42:28;6.18;;;3.45;;
68300;SDS011;55146;47.468;18.806;2023-07-30T00:44:53;7.43;;;3.30;;
68300;SDS011;55146;47.468;18.806;2023-07-30T00:47:19;6.40;;;2.87;;
68300;SDS011;55146;47.468;18.806;2023-07-30T00:49:45;6.45;;;3.15;;
68300;SDS011;55146;47.468;18.806;2023-07-30T00:52:11;5.57;;;3.70;;
68300;SDS011;55146;47.468;18.806;2023-07-30T00:54:36;5.03;;;2.67;;
68300;SDS011;55146;47.468;18.806;2023-07-30T00:57:03;6.53;;;3.55;;
68300;SDS011;55146;47.468;18.806;2023-07-30T00:59:28;4.90;;;2.93;;
68300;SDS011;55146;47.468;18.806;2023-07-30T01:01:54;4.80;;;2.75;;
68300;SDS011;55146;47.468;18.806;2023-07-30T01:04:22;4.85;;;2.92;;
68300;SDS011;55146;47.468;18.806;2023-07-30T01:06:47;4.70;;;2.40;;
68300;SDS011;55146;47.468;18.806;2023-07-30T01:09:13;4.97;;;2.93;;
68300;SDS011;55146;47.468;18.806;2023-07-30T01:11:38;6.60;;;3.30;;
68300;SDS011;55146;47.468;18.806;2023-07-30T01:14:05;5.25;;;3.37;;
68300;SDS011;55146;47.468;18.806;2023-07-30T01:16:30;4.70;;;2.40;;
68300;SDS011;55146;47.468;18.806;2023-07-30T01:18:56;5.40;;;3.37;;
68300;SDS011;55146;47.468;18.806;2023-07-30T01:21:24;7.57;;;3.35;;
68300;SDS011;55146;47.468;18.806;2023-07-30T01:23:49;5.30;;;3.10;;
68300;SDS011;55146;47.468;18.806;2023-07-30T01:26:19;6.47;;;3.43;;
68300;SDS011;55146;47.468;18.806;2023-07-30T01:28:48;4.97;;;2.62;;
68300;SDS011;55146;47.468;18.806;2023-07-30T01:31:16;5.15;;;3.15;;
68300;SDS011;55146;47.468;18.806;2023-07-30T01:33:43;4.90;;;2.78;;
68300;SDS011;55146;47.468;18.806;2023-07-30T01:36:13;5.85;;;2.78;;
68300;SDS011;55146;47.468;18.806;2023-07-30T01:38:40;5.83;;;2.73;;
68300;SDS011;55146;47.468;18.806;2023-07-30T01:41:08;4.78;;;2.83;;
68300;SDS011;55146;47.468;18.806;2023-07-30T01:43:33;4.50;;;2.28;;
68300;SDS011;55146;47.468;18.806;2023-07-30T01:45:59;6.80;;;3.10;;
68300;SDS011;55146;47.468;18.806;2023-07-30T01:48:24;5.13;;;3.57;;
68300;SDS011;55146;47.468;18.806;2023-07-30T01:50:49;4.93;;;2.80;;
68300;SDS011;55146;47.468;18.806;2023-07-30T01:53:15;4.47;;;2.47;;
68300;SDS011;55146;47.468;18.806;2023-07-30T01:55:40;4.57;;;2.58;;
68300;SDS011;55146;47.468;18.806;2023-07-30T01:58:08;5.50;;;2.97;;
68300;SDS011;55146;47.468;18.806;2023-07-30T02:00:34;4.68;;;2.47;;
68300;SDS011;55146;47.468;18.806;2023-07-30T02:02:59;5.63;;;3.33;;
68300;SDS011;55146;47.468;18.806;2023-07-30T02:05:25;5.30;;;3.63;;
68300;SDS011;55146;47.468;18.806;2023-07-30T02:07:50;5.00;;;2.58;;
68300;SDS011;55146;47.468;18.806;2023-07-30T02:10:15;5.60;;;3.60;;
68300;SDS011;55146;47.468;18.806;2023-07-30T02:12:41;5.83;;;2.60;;
68300;SDS011;55146;47.468;18.806;2023-07-30T02:15:06;4.93;;;2.53;;
68300;SDS011;55146;47.468;18.806;2023-07-30T02:17:32;5.97;;;3.35;;
68300;SDS011;55146;47.468;18.806;2023-07-30T02:19:57;5.93;;;3.77;;
68300;SDS011;55146;47.468;18.806;2023-07-30T02:22:23;5.20;;;3.00;;
68300;SDS011;55146;47.468;18.806;2023-07-30T02:24:48;5.57;;;3.53;;
68300;SDS011;55146;47.468;18.806;2023-07-30T02:27:13;5.10;;;3.03;;
68300;SDS011;55146;47.468;18.806;2023-07-30T02:29:38;5.20;;;2.63;;
68300;SDS011;55146;47.468;18.806;2023-07-30T02:32:04;5.07;;;2.90;;
68300;SDS011;55146;47.468;18.806;2023-07-30T02:34:30;5.85;;;3.47;;
68300;SDS011;55146;47.468;18.806;2023-07-30T02:36:55;5.77;;;2.77;;
68300;SDS011;55146;47.468;18.806;2023-07-30T02:39:20;5.10;;;3.07;;
68300;SDS011;55146;47.468;18.806;2023-07-30T02:41:46;5.30;;;2.70;;
68300;SDS011;55146;47.468;18.806;2023-07-30T02:44:11;4.90;;;2.67;;
68300;SDS011;55146;47.468;18.806;2023-07-30T02:46:37;8.50;;;3.43;;
68300;SDS011;55146;47.468;18.806;2023-07-30T02:49:02;4.63;;;2.83;;
68300;SDS011;55146;47.468;18.806;2023-07-30T02:51:27;5.13;;;2.50;;
68300;SDS011;55146;47.468;18.806;2023-07-30T02:53:54;5.03;;;3.50;;
68300;SDS011;55146;47.468;18.806;2023-07-30T02:56:24;5.45;;;2.30;;
68300;SDS011;55146;47.468;18.806;2023-07-30T02:58:49;5.80;;;2.93;;
68300;SDS011;55146;47.468;18.806;2023-07-30T03:01:15;5.32;;;3.05;;
68300;SDS011;55146;47.468;18.806;2023-07-30T03:03:41;4.63;;;3.43;;
68300;SDS011;55146;47.468;18.806;2023-07-30T03:06:06;5.80;;;3.23;;
68300;SDS011;55146;47.468;18.806;2023-07-30T03:08:31;5.60;;;3.40;;
68300;SDS011;55146;47.468;18.806;2023-07-30T03:10:58;6.33;;;3.67;;
68300;SDS011;55146;47.468;18.806;2023-07-30T03:13:24;5.20;;;2.67;;
68300;SDS011;55146;47.468;18.806;2023-07-30T03:15:49;4.80;;;3.15;;
68300;SDS011;55146;47.468;18.806;2023-07-30T03:18:15;5.57;;;2.90;;
68300;SDS011;55146;47.468;18.806;2023-07-30T03:20:40;6.37;;;3.07;;
68300;SDS011;55146;47.468;18.806;2023-07-30T03:23:05;5.00;;;3.47;;
68300;SDS011;55146;47.468;18.806;2023-07-30T03:25:31;6.27;;;3.47;;
68300;SDS011;55146;47.468;18.806;2023-07-30T03:27:56;4.40;;;2.43;;
68300;SDS011;55146;47.468;18.806;2023-07-30T03:30:21;5.83;;;3.93;;
68300;SDS011;55146;47.468;18.806;2023-07-30T03:32:47;8.83;;;3.47;;
68300;SDS011;55146;47.468;18.806;2023-07-30T03:35:12;6.07;;;2.80;;
68300;SDS011;55146;47.468;18.806;2023-07-30T03:37:37;5.13;;;3.33;;
68300;SDS011;55146;47.468;18.806;2023-07-30T03:40:03;7.03;;;3.37;;
68300;SDS011;55146;47.468;18.806;2023-07-30T03:42:28;5.20;;;3.65;;
68300;SDS011;55146;47.468;18.806;2023-07-30T03:44:54;4.80;;;3.00;;
68300;SDS011;55146;47.468;18.806;2023-07-30T03:47:19;6.57;;;3.30;;
68300;SDS011;55146;47.468;18.806;2023-07-30T03:49:45;5.47;;;2.80;;
68300;SDS011;55146;47.468;18.806;2023-07-30T03:52:10;5.17;;;3.60;;
68300;SDS011;55146;47.468;18.806;2023-07-30T03:54:35;8.80;;;3.20;;
68300;SDS011;55146;47.468;18.806;2023-07-30T03:57:01;5.43;;;2.75;;
68300;SDS011;55146;47.468;18.806;2023-07-30T03:59:26;5.37;;;2.60;;
68300;SDS011;55146;47.468;18.806;2023-07-30T04:01:53;7.12;;;3.85;;
68300;SDS011;55146;47.468;18.806;2023-07-30T04:04:18;5.37;;;3.67;;
68300;SDS011;55146;47.468;18.806;2023-07-30T04:06:44;5.30;;;3.23;;
68300;SDS011;55146;47.468;18.806;2023-07-30T04:09:09;5.57;;;3.03;;
68300;SDS011;55146;47.468;18.806;2023-07-30T04:11:34;5.47;;;3.40;;
68300;SDS011;55146;47.468;18.806;2023-07-30T04:14:00;6.00;;;3.87;;
68300;SDS011;55146;47.468;18.806;2023-07-30T04:16:25;6.87;;;4.30;;
68300;SDS011;55146;47.468;18.806;2023-07-30T04:18:51;8.23;;;4.40;;
68300;SDS011;55146;47.468;18.806;2023-07-30T04:21:16;5.37;;;3.40;;
68300;SDS011;55146;47.468;18.806;2023-07-30T04:23:41;6.70;;;3.33;;
68300;SDS011;55146;47.468;18.806;2023-07-30T04:26:07;5.18;;;3.60;;
68300;SDS011;55146;47.468;18.806;2023-07-30T04:28:32;6.50;;;4.23;;
68300;SDS011;55146;47.468;18.806;2023-07-30T04:30:58;5.50;;;3.47;;
68300;SDS011;55146;47.468;18.806;2023-07-30T04:33:23;5.80;;;3.53;;
68300;SDS011;55146;47.468;18.806;2023-07-30T04:35:49;6.72;;;3.72;;
68300;SDS011;55146;47.468;18.806;2023-07-30T04:38:14;6.13;;;3.67;;
68300;SDS011;55146;47.468;18.806;2023-07-30T04:40:40;6.40;;;3.70;;
68300;SDS011;55146;47.468;18.806;2023-07-30T04:43:06;5.40;;;3.58;;
68300;SDS011;55146;47.468;18.806;2023-07-30T04:45:33;5.62;;;4.12;;
68300;SDS011;55146;47.468;18.806;2023-07-30T04:47:58;8.43;;;3.27;;
68300;SDS011;55146;47.468;18.806;2023-07-30T04:50:23;4.97;;;2.87;;
68300;SDS011;55146;47.468;18.806;2023-07-30T04:52:49;5.17;;;3.33;;
68300;SDS011;55146;47.468;18.806;2023-07-30T04:55:14;6.37;;;3.40;;
68300;SDS011;55146;47.468;18.806;2023-07-30T04:57:40;7.10;;;3.23;;
68300;SDS011;55146;47.468;18.806;2023-07-30T05:00:05;5.50;;;3.80;;
68300;SDS011;55146;47.468;18.806;2023-07-30T05:02:32;5.82;;;3.47;;
68300;SDS011;55146;47.468;18.806;2023-07-30T05:04:57;6.10;;;3.10;;
68300;SDS011;55146;47.468;18.806;2023-07-30T05:07:23;5.53;;;3.63;;
68300;SDS011;55146;47.468;18.806;2023-07-30T05:09:48;5.30;;;3.40;;
68300;SDS011;55146;47.468;18.806;2023-07-30T05:12:13;5.63;;;3.70;;
68300;SDS011;55146;47.468;18.806;2023-07-30T05:14:39;8.23;;;3.50;;
68300;SDS011;55146;47.468;18.806;2023-07-30T05:17:07;5.82;;;3.42;;
68300;SDS011;55146;47.468;18.806;2023-07-30T05:19:32;5.60;;;4.07;;
68300;SDS011;55146;47.468;18.806;2023-07-30T05:21:58;6.35;;;3.03;;
68300;SDS011;55146;47.468;18.806;2023-07-30T05:24:24;5.97;;;3.10;;
68300;SDS011;55146;47.468;18.806;2023-07-30T05:26:50;5.93;;;4.07;;
68300;SDS011;55146;47.468;18.806;2023-07-30T05:29:15;6.10;;;3.60;;
68300;SDS011;55146;47.468;18.806;2023-07-30T05:31:41;5.87;;;3.60;;
68300;SDS011;55146;47.468;18.806;2023-07-30T05:34:06;5.13;;;3.57;;
68300;SDS011;55146;47.468;18.806;2023-07-30T05:36:32;6.30;;;3.77;;
68300;SDS011;55146;47.468;18.806;2023-07-30T05:38:57;6.07;;;4.67;;
68300;SDS011;55146;47.468;18.806;2023-07-30T05:41:22;6.33;;;3.97;;
68300;SDS011;55146;47.468;18.806;2023-07-30T05:43:48;6.60;;;3.57;;
68300;SDS011;55146;47.468;18.806;2023-07-30T05:46:14;5.57;;;3.67;;
68300;SDS011;55146;47.468;18.806;2023-07-30T05:48:39;6.62;;;4.00;;
68300;SDS011;55146;47.468;18.806;2023-07-30T05:51:05;6.87;;;4.03;;
68300;SDS011;55146;47.468;18.806;2023-07-30T05:53:30;6.90;;;4.00;;
68300;SDS011;55146;47.468;18.806;2023-07-30T05:55:56;6.10;;;3.90;;
68300;SDS011;55146;47.468;18.806;2023-07-30T05:58:21;5.67;;;3.87;;
68300;SDS011;55146;47.468;18.806;2023-07-30T06:00:47;5.80;;;4.23;;
68300;SDS011;55146;47.468;18.806;2023-07-30T06:03:12;7.10;;;3.90;;
68300;SDS011;55146;47.468;18.806;2023-07-30T06:05:40;6.18;;;3.65;;
68300;SDS011;55146;47.468;18.806;2023-07-30T06:08:06;7.07;;;4.57;;
68300;SDS011;55146;47.468;18.806;2023-07-30T06:10:35;7.03;;;4.30;;
68300;SDS011;55146;47.468;18.806;2023-07-30T06:13:05;6.05;;;4.20;;
68300;SDS011;55146;47.468;18.806;2023-07-30T06:15:31;6.93;;;5.00;;
68300;SDS011;55146;47.468;18.806;2023-07-30T06:18:02;8.05;;;4.57;;
68300;SDS011;55146;47.468;18.806;2023-07-30T06:20:28;6.93;;;4.72;;
68300;SDS011;55146;47.468;18.806;2023-07-30T06:22:54;6.23;;;4.27;;
68300;SDS011;55146;47.468;18.806;2023-07-30T06:25:19;7.47;;;4.23;;
68300;SDS011;55146;47.468;18.806;2023-07-30T06:27:44;6.60;;;4.13;;
68300;SDS011;55146;47.468;18.806;2023-07-30T06:30:10;6.25;;;3.58;;
68300;SDS011;55146;47.468;18.806;2023-07-30T06:32:36;8.33;;;4.00;;
68300;SDS011;55146;47.468;18.806;2023-07-30T06:35:01;6.75;;;3.45;;
68300;SDS011;55146;47.468;18.806;2023-07-30T06:37:28;6.78;;;4.05;;
68300;SDS011;55146;47.468;18.806;2023-07-30T06:39:53;6.23;;;3.20;;
68300;SDS011;55146;47.468;18.806;2023-07-30T06:42:19;4.87;;;3.20;;
68300;SDS011;55146;47.468;18.806;2023-07-30T06:44:44;6.40;;;3.90;;
68300;SDS011;55146;47.468;18.806;2023-07-30T06:47:11;6.62;;;3.25;;
68300;SDS011;55146;47.468;18.806;2023-07-30T06:49:36;4.90;;;3.07;;
68300;SDS011;55146;47.468;18.806;2023-07-30T06:52:02;6.67;;;3.20;;
68300;SDS011;55146;47.468;18.806;2023-07-30T06:54:28;6.37;;;3.37;;
68300;SDS011;55146;47.468;18.806;2023-07-30T06:56:56;6.00;;;4.10;;
68300;SDS011;55146;47.468;18.806;2023-07-30T06:59:21;5.43;;;3.05;;
68300;SDS011;55146;47.468;18.806;2023-07-30T07:01:46;7.60;;;3.83;;
68300;SDS011;55146;47.468;18.806;2023-07-30T07:04:12;6.00;;;4.25;;
68300;SDS011;55146;47.468;18.806;2023-07-30T07:06:37;6.63;;;4.30;;
68300;SDS011;55146;47.468;18.806;2023-07-30T07:09:03;5.30;;;3.73;;
68300;SDS011;55146;47.468;18.806;2023-07-30T07:11:28;5.77;;;3.40;;
68300;SDS011;55146;47.468;18.806;2023-07-30T07:13:59;6.83;;;4.17;;
68300;SDS011;55146;47.468;18.806;2023-07-30T07:16:29;6.78;;;3.15;;
68300;SDS011;55146;47.468;18.806;2023-07-30T07:18:54;6.62;;;3.92;;
68300;SDS011;55146;47.468;18.806;2023-07-30T07:21:19;5.93;;;3.73;;
68300;SDS011;55146;47.468;18.806;2023-07-30T07:23:45;6.87;;;3.83;;
68300;SDS011;55146;47.468;18.806;2023-07-30T07:26:11;6.45;;;3.15;;
68300;SDS011;55146;47.468;18.806;2023-07-30T07:28:37;5.20;;;2.80;;
68300;SDS011;55146;47.468;18.806;2023-07-30T07:31:05;6.85;;;3.90;;
68300;SDS011;55146;47.468;18.806;2023-07-30T07:33:31;4.93;;;2.87;;
68300;SDS011;55146;47.468;18.806;2023-07-30T07:36:03;5.97;;;3.17;;
68300;SDS011;55146;47.468;18.806;2023-07-30T07:38:32;5.78;;;2.60;;
68300;SDS011;55146;47.468;18.806;2023-07-30T07:40:59;5.20;;;3.55;;
68300;SDS011;55146;47.468;18.806;2023-07-30T07:43:25;5.57;;;3.30;;
68300;SDS011;55146;47.468;18.806;2023-07-30T07:45:51;6.87;;;3.67;;
68300;SDS011;55146;47.468;18.806;2023-07-30T07:48:16;11.30;;;3.70;;
68300;SDS011;55146;47.468;18.806;2023-07-30T07:50:42;5.90;;;3.77;;
68300;SDS011;55146;47.468;18.806;2023-07-30T07:53:07;7.57;;;3.67;;
68300;SDS011;55146;47.468;18.806;2023-07-30T07:55:32;5.83;;;3.37;;
68300;SDS011;55146;47.468;18.806;2023-07-30T07:57:58;8.90;;;4.50;;
68300;SDS011;55146;47.468;18.806;2023-07-30T08:00:23;7.70;;;4.50;;
68300;SDS011;55146;47.468;18.806;2023-07-30T08:02:49;7.13;;;3.87;;
68300;SDS011;55146;47.468;18.806;2023-07-30T08:05:14;8.53;;;4.37;;
68300;SDS011;55146;47.468;18.806;2023-07-30T08:07:39;8.00;;;3.60;;
68300;SDS011;55146;47.468;18.806;2023-07-30T08:10:05;6.20;;;4.07;;
68300;SDS011;55146;47.468;18.806;2023-07-30T08:12:31;6.70;;;3.47;;
68300;SDS011;55146;47.468;18.806;2023-07-30T08:14:57;6.57;;;3.47;;
68300;SDS011;55146;47.468;18.806;2023-07-30T08:17:23;7.30;;;3.60;;
68300;SDS011;55146;47.468;18.806;2023-07-30T08:19:49;7.33;;;4.37;;
68300;SDS011;55146;47.468;18.806;2023-07-30T08:22:14;6.80;;;4.13;;
68300;SDS011;55146;47.468;18.806;2023-07-30T08:24:40;8.88;;;3.97;;
68300;SDS011;55146;47.468;18.806;2023-07-30T08:27:05;6.90;;;4.10;;
68300;SDS011;55146;47.468;18.806;2023-07-30T08:29:31;6.80;;;4.30;;
68300;SDS011;55146;47.468;18.806;2023-07-30T08:31:56;6.60;;;3.47;;
68300;SDS011;55146;47.468;18.806;2023-07-30T08:34:21;7.17;;;4.10;;
68300;SDS011;55146;47.468;18.806;2023-07-30T08:36:48;8.15;;;4.30;;
68300;SDS011;55146;47.468;18.806;2023-07-30T08:39:13;6.60;;;4.50;;
68300;SDS011;55146;47.468;18.806;2023-07-30T08:41:39;7.20;;;3.53;;
68300;SDS011;55146;47.468;18.806;2023-07-30T08:44:06;7.03;;;3.40;;
68300;SDS011;55146;47.468;18.806;2023-07-30T08:46:31;6.43;;;3.60;;
68300;SDS011;55146;47.468;18.806;2023-07-30T08:48:57;7.67;;;4.93;;
68300;SDS011;55146;47.468;18.806;2023-07-30T08:51:22;7.00;;;4.43;;
68300;SDS011;55146;47.468;18.806;2023-07-30T08:53:53;7.03;;;4.37;;
68300;SDS011;55146;47.468;18.806;2023-07-30T08:56:21;7.60;;;4.45;;
68300;SDS011;55146;47.468;18.806;2023-07-30T08:58:46;6.73;;;3.77;;
68300;SDS011;55146;47.468;18.806;2023-07-30T09:01:14;9.52;;;4.30;;
68300;SDS011;55146;47.468;18.806;2023-07-30T09:03:42;8.75;;;4.78;;
68300;SDS011;55146;47.468;18.806;2023-07-30T09:06:08;6.12;;;3.75;;
68300;SDS011;55146;47.468;18.806;2023-07-30T09:08:33;8.60;;;5.17;;
68300;SDS011;55146;47.468;18.806;2023-07-30T09:11:11;8.17;;;4.77;;
68300;SDS011;55146;47.468;18.806;2023-07-30T09:13:37;6.32;;;4.03;;
68300;SDS011;55146;47.468;18.806;2023-07-30T09:16:10;7.12;;;4.70;;
68300;SDS011;55146;47.468;18.806;2023-07-30T09:18:46;7.43;;;4.20;;
68300;SDS011;55146;47.468;18.806;2023-07-30T09:21:12;8.05;;;4.03;;
68300;SDS011;55146;47.468;18.806;2023-07-30T09:23:42;7.35;;;4.47;;
68300;SDS011;55146;47.468;18.806;2023-07-30T09:26:08;6.45;;;4.00;;
68300;SDS011;55146;47.468;18.806;2023-07-30T09:28:34;6.80;;;4.62;;
68300;SDS011;55146;47.468;18.806;2023-07-30T09:31:06;5.97;;;3.73;;
68300;SDS011;55146;47.468;18.806;2023-07-30T09:33:40;7.45;;;4.40;;
68300;SDS011;55146;47.468;18.806;2023-07-30T09:36:06;6.90;;;3.97;;
68300;SDS011;55146;47.468;18.806;2023-07-30T09:38:37;8.15;;;5.15;;
68300;SDS011;55146;47.468;18.806;2023-07-30T09:41:04;7.45;;;5.15;;
68300;SDS011;55146;47.468;18.806;2023-07-30T09:43:31;8.93;;;5.13;;
68300;SDS011;55146;47.468;18.806;2023-07-30T09:46:01;9.30;;;5.30;;
68300;SDS011;55146;47.468;18.806;2023-07-30T09:48:29;6.97;;;4.00;;
68300;SDS011;55146;47.468;18.806;2023-07-30T09:50:56;7.57;;;4.65;;
68300;SDS011;55146;47.468;18.806;2023-07-30T09:53:32;7.27;;;4.43;;
68300;SDS011;55146;47.468;18.806;2023-07-30T09:56:04;7.68;;;4.28;;
68300;SDS011;55146;47.468;18.806;2023-07-30T09:58:32;7.68;;;4.57;;
68300;SDS011;55146;47.468;18.806;2023-07-30T10:01:00;7.47;;;4.13;;
68300;SDS011;55146;47.468;18.806;2023-07-30T10:03:27;7.65;;;4.53;;
68300;SDS011;55146;47.468;18.806;2023-07-30T10:05:59;7.47;;;5.20;;
68300;SDS011;55146;47.468;18.806;2023-07-30T10:08:28;10.95;;;4.80;;
68300;SDS011;55146;47.468;18.806;2023-07-30T10:10:56;7.18;;;4.43;;
68300;SDS011;55146;47.468;18.806;2023-07-30T10:13:23;7.00;;;4.75;;
68300;SDS011;55146;47.468;18.806;2023-07-30T10:15:49;7.07;;;4.73;;
68300;SDS011;55146;47.468;18.806;2023-07-30T10:18:15;9.02;;;4.62;;
68300;SDS011;55146;47.468;18.806;2023-07-30T10:20:41;7.80;;;4.93;;
68300;SDS011;55146;47.468;18.806;2023-07-30T10:23:17;7.50;;;4.93;;
68300;SDS011;55146;47.468;18.806;2023-07-30T10:25:49;9.17;;;5.93;;
68300;SDS011;55146;47.468;18.806;2023-07-30T10:31:05;7.70;;;5.37;;
68300;SDS011;55146;47.468;18.806;2023-07-30T10:33:51;7.67;;;4.27;;
68300;SDS011;55146;47.468;18.806;2023-07-30T10:36:33;7.45;;;4.82;;
68300;SDS011;55146;47.468;18.806;2023-07-30T10:39:15;9.48;;;5.55;;
68300;SDS011;55146;47.468;18.806;2023-07-30T10:41:53;6.65;;;4.70;;
68300;SDS011;55146;47.468;18.806;2023-07-30T10:44:27;8.25;;;5.12;;
68300;SDS011;55146;47.468;18.806;2023-07-30T10:46:56;7.00;;;3.80;;
68300;SDS011;55146;47.468;18.806;2023-07-30T10:49:23;6.57;;;3.65;;
68300;SDS011;55146;47.468;18.806;2023-07-30T10:51:51;6.50;;;4.68;;
68300;SDS011;55146;47.468;18.806;2023-07-30T10:54:18;6.53;;;4.60;;
68300;SDS011;55146;47.468;18.806;2023-07-30T10:56:43;7.35;;;4.87;;
68300;SDS011;55146;47.468;18.806;2023-07-30T10:59:11;6.57;;;4.00;;
68300;SDS011;55146;47.468;18.806;2023-07-30T11:06:36;5.72;;;3.95;;
68300;SDS011;55146;47.468;18.806;2023-07-30T11:09:02;7.47;;;4.32;;
68300;SDS011;55146;47.468;18.806;2023-07-30T11:11:27;6.77;;;5.07;;
68300;SDS011;55146;47.468;18.806;2023-07-30T11:13:53;6.82;;;5.05;;
68300;SDS011;55146;47.468;18.806;2023-07-30T11:16:19;13.43;;;3.70;;
68300;SDS011;55146;47.468;18.806;2023-07-30T11:18:44;7.23;;;4.37;;
68300;SDS011;55146;47.468;18.806;2023-07-30T11:21:17;6.93;;;5.20;;
68300;SDS011;55146;47.468;18.806;2023-07-30T11:23:44;6.45;;;3.70;;
68300;SDS011;55146;47.468;18.806;2023-07-30T11:26:17;6.20;;;4.03;;
68300;SDS011;55146;47.468;18.806;2023-07-30T11:28:44;6.17;;;4.33;;
68300;SDS011;55146;47.468;18.806;2023-07-30T11:33:41;6.65;;;3.78;;
68300;SDS011;55146;47.468;18.806;2023-07-30T11:36:09;6.68;;;4.53;;
68300;SDS011;55146;47.468;18.806;2023-07-30T11:38:36;6.55;;;4.28;;
68300;SDS011;55146;47.468;18.806;2023-07-30T11:41:03;6.40;;;4.50;;
68300;SDS011;55146;47.468;18.806;2023-07-30T11:43:30;7.30;;;4.60;;
68300;SDS011;55146;47.468;18.806;2023-07-30T11:46:09;6.22;;;4.72;;
68300;SDS011;55146;47.468;18.806;2023-07-30T11:48:36;7.32;;;4.10;;
68300;SDS011;55146;47.468;18.806;2023-07-30T11:51:03;7.28;;;4.37;;
68300;SDS011;55146;47.468;18.806;2023-07-30T11:56:31;5.10;;;3.78;;
68300;SDS011;55146;47.468;18.806;2023-07-30T11:59:01;5.12;;;3.72;;
68300;SDS011;55146;47.468;18.806;2023-07-30T12:01:31;5.25;;;3.35;;
68300;SDS011;55146;47.468;18.806;2023-07-30T12:03:59;5.57;;;3.60;;
68300;SDS011;55146;47.468;18.806;2023-07-30T12:09:11;6.72;;;3.03;;
68300;SDS011;55146;47.468;18.806;2023-07-30T12:11:43;5.12;;;3.20;;
68300;SDS011;55146;47.468;18.806;2023-07-30T12:14:13;5.65;;;3.47;;
68300;SDS011;55146;47.468;18.806;2023-07-30T12:16:39;5.17;;;3.47;;
68300;SDS011;55146;47.468;18.806;2023-07-30T12:19:04;7.57;;;3.10;;
68300;SDS011;55146;47.468;18.806;2023-07-30T12:21:30;6.40;;;3.60;;
68300;SDS011;55146;47.468;18.806;2023-07-30T12:23:55;4.60;;;3.28;;
68300;SDS011;55146;47.468;18.806;2023-07-30T12:26:20;6.00;;;3.43;;
68300;SDS011;55146;47.468;18.806;2023-07-30T12:28:46;4.97;;;3.17;;
68300;SDS011;55146;47.468;18.806;2023-07-30T12:31:11;6.07;;;3.67;;
68300;SDS011;55146;47.468;18.806;2023-07-30T12:33:36;5.00;;;2.53;;
68300;SDS011;55146;47.468;18.806;2023-07-30T12:36:02;13.90;;;3.77;;
68300;SDS011;55146;47.468;18.806;2023-07-30T12:38:27;5.40;;;2.87;;
68300;SDS011;55146;47.468;18.806;2023-07-30T12:40:52;5.27;;;3.70;;
68300;SDS011;55146;47.468;18.806;2023-07-30T12:43:18;5.47;;;2.70;;
68300;SDS011;55146;47.468;18.806;2023-07-30T12:45:46;5.50;;;2.92;;
68300;SDS011;55146;47.468;18.806;2023-07-30T12:48:12;6.70;;;3.10;;
68300;SDS011;55146;47.468;18.806;2023-07-30T12:50:38;5.37;;;2.62;;
68300;SDS011;55146;47.468;18.806;2023-07-30T12:53:03;5.57;;;3.27;;
68300;SDS011;55146;47.468;18.806;2023-07-30T12:55:29;5.68;;;3.62;;
68300;SDS011;55146;47.468;18.806;2023-07-30T12:57:54;4.70;;;3.17;;
68300;SDS011;55146;47.468;18.806;2023-07-30T13:00:20;5.23;;;2.73;;
68300;SDS011;55146;47.468;18.806;2023-07-30T13:02:45;4.50;;;2.92;;
68300;SDS011;55146;47.468;18.806;2023-07-30T13:05:12;5.57;;;2.43;;
68300;SDS011;55146;47.468;18.806;2023-07-30T13:07:40;6.47;;;2.83;;
68300;SDS011;55146;47.468;18.806;2023-07-30T13:10:07;5.53;;;3.70;;
68300;SDS011;55146;47.468;18.806;2023-07-30T13:12:33;5.35;;;3.87;;
68300;SDS011;55146;47.468;18.806;2023-07-30T13:15:00;5.53;;;3.70;;
68300;SDS011;55146;47.468;18.806;2023-07-30T13:17:26;5.17;;;3.27;;
68300;SDS011;55146;47.468;18.806;2023-07-30T13:19:52;5.30;;;3.08;;
68300;SDS011;55146;47.468;18.806;2023-07-30T13:22:18;6.75;;;3.33;;
68300;SDS011;55146;47.468;18.806;2023-07-30T13:24:44;5.03;;;3.15;;
68300;SDS011;55146;47.468;18.806;2023-07-30T13:27:09;5.07;;;3.00;;
68300;SDS011;55146;47.468;18.806;2023-07-30T13:29:36;8.45;;;3.70;;
68300;SDS011;55146;47.468;18.806;2023-07-30T13:32:01;6.20;;;3.27;;
68300;SDS011;55146;47.468;18.806;2023-07-30T13:34:27;5.32;;;3.85;;
68300;SDS011;55146;47.468;18.806;2023-07-30T13:36:53;5.12;;;3.17;;
68300;SDS011;55146;47.468;18.806;2023-07-30T13:39:19;5.53;;;2.70;;
68300;SDS011;55146;47.468;18.806;2023-07-30T13:41:44;8.05;;;2.62;;
68300;SDS011;55146;47.468;18.806;2023-07-30T13:44:10;7.83;;;3.77;;
68300;SDS011;55146;47.468;18.806;2023-07-30T13:46:37;4.97;;;2.97;;
68300;SDS011;55146;47.468;18.806;2023-07-30T13:49:05;5.45;;;3.22;;
68300;SDS011;55146;47.468;18.806;2023-07-30T13:51:32;5.27;;;3.70;;
68300;SDS011;55146;47.468;18.806;2023-07-30T13:53:58;6.68;;;3.10;;
68300;SDS011;55146;47.468;18.806;2023-07-30T13:56:25;5.18;;;2.65;;
68300;SDS011;55146;47.468;18.806;2023-07-30T13:58:52;4.40;;;2.85;;
68300;SDS011;55146;47.468;18.806;2023-07-30T14:01:17;5.10;;;2.63;;
68300;SDS011;55146;47.468;18.806;2023-07-30T14:03:43;4.80;;;3.25;;
68300;SDS011;55146;47.468;18.806;2023-07-30T14:06:09;4.20;;;2.00;;
68300;SDS011;55146;47.468;18.806;2023-07-30T14:08:36;4.75;;;2.70;;
68300;SDS011;55146;47.468;18.806;2023-07-30T14:11:01;6.60;;;3.30;;
68300;SDS011;55146;47.468;18.806;2023-07-30T14:13:27;4.47;;;2.73;;
68300;SDS011;55146;47.468;18.806;2023-07-30T14:15:53;5.40;;;2.97;;
68300;SDS011;55146;47.468;18.806;2023-07-30T14:18:19;4.22;;;2.22;;
68300;SDS011;55146;47.468;18.806;2023-07-30T14:20:45;4.63;;;2.53;;
68300;SDS011;55146;47.468;18.806;2023-07-30T14:23:11;5.72;;;3.00;;
68300;SDS011;55146;47.468;18.806;2023-07-30T14:25:37;4.53;;;2.77;;
68300;SDS011;55146;47.468;18.806;2023-07-30T14:28:02;5.25;;;2.35;;
68300;SDS011;55146;47.468;18.806;2023-07-30T14:30:28;4.53;;;2.65;;
68300;SDS011;55146;47.468;18.806;2023-07-30T14:32:53;5.73;;;3.07;;
68300;SDS011;55146;47.468;18.806;2023-07-30T14:35:19;4.50;;;2.70;;
68300;SDS011;55146;47.468;18.806;2023-07-30T14:37:45;4.62;;;1.98;;
68300;SDS011;55146;47.468;18.806;2023-07-30T14:40:11;4.43;;;2.70;;
68300;SDS011;55146;47.468;18.806;2023-07-30T14:42:36;5.37;;;2.28;;
68300;SDS011;55146;47.468;18.806;2023-07-30T14:45:02;4.73;;;2.80;;